Terminal Aerodrome Forecast
Issued by NWS

Home | Current Version | Previous Version | Text Only | Print | Product List | Glossary On
Versions: 1 2 3 4 5 6 7 8 9 10 11 12 13 14
000
FTUS45 KREV 312300
TAFRNO
TAF
KRNO 312329Z 0100/0124 22014G26KT P6SM SCT070 BKN140
     FM010300 26011G19KT P6SM -SHRA SCT040 OVC070
     FM010500 30008KT 6SM -SHRA SCT025 OVC040
     FM011500 32010KT P6SM VCSH SCT040 OVC060
     FM012100 27015G25KT P6SM SCT050 BKN070=

USA.gov is the U.S. government's official web portal to all federal, state and local government web resources and services.